Time;durP1;ratioP1;P1;durP2;ratioP2;P2;SDS_P1;SDS_P2;PMS_P1;PMS_P2;Temp;Humidity;BMP_temperature;BMP_pressure;BME280_temperature;BME280_humidity;BME280_pressure;Samples;Min_cycle;Max_cycle;Signal;HPM_P1;HPM_P2
2021/03/09 00:02:19;;;;;;;136.03;44.47;;;;;;;-4.68;60.31;99586.91;123845;1102;64990;-78
2021/03/09 00:04:45;;;;;;;132.80;43.58;;;;;;;-4.60;60.08;99588.63;123816;1102;65001;-78
2021/03/09 00:07:12;;;;;;;133.37;42.90;;;;;;;-4.64;60.30;99583.44;123470;1102;64931;-77
2021/03/09 00:09:38;;;;;;;104.60;35.73;;;;;;;-4.73;59.83;99580.84;123845;1102;64940;-77
2021/03/09 00:12:05;;;;;;;122.33;38.60;;;;;;;-4.81;60.07;99580.00;123429;1102;64844;-77
2021/03/09 00:14:31;;;;;;;116.65;38.65;;;;;;;-4.88;60.15;99586.09;123491;1102;64991;-77
2021/03/09 00:16:58;;;;;;;108.87;36.60;;;;;;;-4.89;60.47;99592.17;123529;1102;65001;-77
2021/03/09 00:19:24;;;;;;;104.58;37.15;;;;;;;-4.94;60.37;99586.09;123475;1102;64982;-80
2021/03/09 00:21:51;;;;;;;110.20;38.47;;;;;;;-4.99;60.21;99582.63;123786;1102;64876;-77
2021/03/09 00:24:17;;;;;;;102.00;36.67;;;;;;;-5.03;60.14;99592.16;123446;1102;64895;-77
2021/03/09 00:26:44;;;;;;;94.70;34.30;;;;;;;-5.02;60.73;99591.33;123846;1102;64944;-78
2021/03/09 00:29:10;;;;;;;88.90;32.25;;;;;;;-4.97;60.36;99591.30;123484;1102;65000;-80
2021/03/09 00:31:37;;;;;;;86.10;30.80;;;;;;;-4.98;60.50;99590.43;123856;1102;64921;-78
2021/03/09 00:34:03;;;;;;;98.27;33.77;;;;;;;-4.99;60.67;99586.09;123511;1102;65294;-78
2021/03/09 00:36:29;;;;;;;129.93;42.23;;;;;;;-5.02;60.59;99590.45;123430;1102;64981;-78
2021/03/09 00:38:55;;;;;;;149.50;43.60;;;;;;;-5.05;60.65;99593.05;123516;1102;65004;-79
2021/03/09 00:41:22;;;;;;;204.37;49.07;;;;;;;-5.09;60.93;99592.20;123468;1102;64908;-79
2021/03/09 00:43:48;;;;;;;206.10;53.35;;;;;;;-5.08;61.27;99603.48;123420;1105;65084;-78
2021/03/09 00:46:15;;;;;;;197.20;49.83;;;;;;;-5.05;60.99;99593.05;123466;1102;64943;-77
2021/03/09 00:48:41;;;;;;;186.13;49.27;;;;;;;-5.08;60.60;99587.86;123572;1102;65000;-78
2021/03/09 00:51:08;;;;;;;166.00;47.70;;;;;;;-5.16;60.65;99586.09;123855;1102;64876;-78
2021/03/09 00:53:35;;;;;;;156.83;41.90;;;;;;;-5.16;60.84;99585.23;123735;1102;65115;-76
2021/03/09 00:56:02;;;;;;;112.40;33.05;;;;;;;-5.16;60.86;99586.09;123449;1103;64898;-82
2021/03/09 00:58:28;;;;;;;58.30;20.00;;;;;;;-5.03;61.42;99579.14;123401;1102;64931;-80
2021/03/09 01:00:55;;;;;;;52.95;18.35;;;;;;;-4.78;61.08;99572.16;123760;1102;64974;-79
2021/03/09 01:03:21;;;;;;;47.70;17.50;;;;;;;-4.50;61.31;99572.97;123414;1102;65029;-79
2021/03/09 01:05:48;;;;;;;54.83;17.80;;;;;;;-4.42;60.41;99570.33;123492;1102;64937;-78
2021/03/09 01:08:14;;;;;;;85.80;23.70;;;;;;;-4.33;60.74;99565.06;123508;1102;64969;-78
2021/03/09 01:10:41;;;;;;;79.63;23.57;;;;;;;-4.30;60.58;99570.28;123451;1102;64989;-77
2021/03/09 01:13:07;;;;;;;147.93;34.83;;;;;;;-4.30;60.57;99566.81;123451;1102;64997;-78
2021/03/09 01:15:34;;;;;;;96.55;26.02;;;;;;;-4.23;60.37;99563.30;123408;1102;64889;-78
2021/03/09 01:18:00;;;;;;;46.10;17.30;;;;;;;-4.18;60.61;99562.41;123476;1102;64949;-77
2021/03/09 01:20:27;;;;;;;51.13;18.17;;;;;;;-4.10;60.60;99554.54;123762;1102;64889;-79
2021/03/09 01:22:53;;;;;;;50.45;17.80;;;;;;;-3.95;60.88;99562.27;123464;1102;64966;-78
2021/03/09 01:25:20;;;;;;;41.17;15.23;;;;;;;-3.79;61.07;99556.98;123794;1102;64936;-78
2021/03/09 01:27:46;;;;;;;42.50;15.60;;;;;;;-3.66;60.59;99564.71;123777;1102;64834;-78
2021/03/09 01:30:13;;;;;;;53.43;16.13;;;;;;;-3.61;60.35;99552.50;123445;1102;64917;-78
2021/03/09 01:32:39;;;;;;;43.15;15.83;;;;;;;-3.58;60.11;99551.60;123770;1102;64972;-78
2021/03/09 01:35:08;;;;;;;49.20;15.60;;;;;;;-3.61;60.43;99549.03;123721;1102;64928;-79
2021/03/09 01:37:34;;;;;;;40.07;15.83;;;;;;;-3.64;60.53;99547.29;123447;1102;64978;-76
2021/03/09 01:40:01;;;;;;;44.10;15.03;;;;;;;-3.66;60.11;99543.83;123446;1102;64915;-82
2021/03/09 01:42:27;;;;;;;37.67;15.27;;;;;;;-3.65;60.29;99537.73;123664;1102;65352;-78
2021/03/09 01:44:53;;;;;;;39.17;15.07;;;;;;;-3.67;60.15;99541.23;123730;1102;64930;-76
2021/03/09 01:47:20;;;;;;;39.70;15.35;;;;;;;-3.67;60.15;99531.66;123428;1102;65267;-81
2021/03/09 01:49:46;;;;;;;32.53;13.03;;;;;;;-3.66;60.17;99530.78;123805;1102;64898;-78
2021/03/09 01:52:13;;;;;;;31.68;12.53;;;;;;;-3.63;60.43;99527.27;123728;1102;64934;-77
2021/03/09 01:54:40;;;;;;;33.07;12.47;;;;;;;-3.64;60.17;99522.93;123433;1102;65017;-81
2021/03/09 01:57:08;;;;;;;31.83;11.70;;;;;;;-3.58;60.50;99518.53;123402;1103;65394;-78
2021/03/09 01:59:36;;;;;;;33.37;11.73;;;;;;;-3.49;60.47;99524.58;123653;1102;64918;-77
2021/03/09 02:02:03;;;;;;;34.95;12.55;;;;;;;-3.61;60.23;99518.56;123705;1102;65004;-78
2021/03/09 02:04:29;;;;;;;31.27;12.07;;;;;;;-3.67;60.17;99517.75;123387;1102;64901;-78
2021/03/09 02:06:56;;;;;;;35.80;13.57;;;;;;;-3.75;60.50;99516.91;123664;1102;64899;-78
2021/03/09 02:09:23;;;;;;;40.20;15.40;;;;;;;-3.82;60.44;99518.70;123467;1102;65045;-79
2021/03/09 02:11:52;;;;;;;36.15;12.15;;;;;;;-3.87;60.30;99517.89;123457;1102;64862;-77
2021/03/09 02:14:36;;;;;;;39.43;12.23;;;;;;;-3.83;60.53;99512.62;123756;1102;65023;-78
2021/03/09 02:17:19;;;;;;;45.43;14.90;;;;;;;-3.72;60.42;99503.86;123701;1102;64953;-77
2021/03/09 02:19:51;;;;;;;37.87;14.17;;;;;;;-3.66;60.45;99506.42;123809;1102;65042;-77
2021/03/09 02:22:59;;;;;;;31.95;11.85;;;;;;;-3.64;60.44;99505.52;123722;1102;64931;-80
2021/03/09 02:25:37;;;;;;;25.30;11.20;;;;;;;-3.59;60.29;99503.75;123343;1105;64959;-77
2021/03/09 02:28:27;;;;;;;25.50;10.03;;;;;;;-3.53;60.32;99508.05;123390;1105;64912;-78
2021/03/09 02:30:57;;;;;;;21.93;10.13;;;;;;;-3.40;60.95;99503.59;123330;1106;64857;-78
2021/03/09 02:33:32;;;;;;;29.73;11.10;;;;;;;-3.30;60.05;99500.04;123368;1105;65150;-79
2021/03/09 02:35:58;;;;;;;25.80;10.37;;;;;;;-3.21;60.27;99494.71;123330;1105;65783;-81
2021/03/09 02:38:28;;;;;;;23.23;10.10;;;;;;;-3.18;59.97;99499.03;123354;1105;64853;-78
2021/03/09 02:40:58;;;;;;;29.40;11.25;;;;;;;-3.16;59.86;99492.93;123370;1105;64927;-78
2021/03/09 02:43:27;;;;;;;19.80;8.43;;;;;;;-3.07;59.84;99497.19;123160;1105;65058;-78
2021/03/09 02:45:56;;;;;;;21.93;9.30;;;;;;;-3.06;59.67;99498.91;123294;1105;65438;-78
2021/03/09 02:48:26;;;;;;;25.90;9.70;;;;;;;-3.10;59.35;99497.23;123409;1105;64952;-78
2021/03/09 02:50:55;;;;;;;21.90;9.60;;;;;;;-3.16;60.04;99492.93;123182;1105;64934;-79
2021/03/09 02:53:27;;;;;;;21.03;8.97;;;;;;;-3.19;60.06;99487.72;123193;1106;64889;-82
2021/03/09 02:55:54;;;;;;;27.90;8.90;;;;;;;-3.23;59.94;99491.27;123335;1105;64869;-80
2021/03/09 02:58:22;;;;;;;25.70;9.70;;;;;;;-3.22;59.80;99492.13;123131;1105;65231;-82
2021/03/09 03:00:53;;;;;;;26.47;9.80;;;;;;;-3.24;59.70;99499.09;123401;1105;65122;-79
2021/03/09 03:03:21;;;;;;;23.60;9.13;;;;;;;-3.30;59.90;99486.98;123530;1102;64952;-76
2021/03/09 03:05:48;;;;;;;20.80;8.63;;;;;;;-3.34;60.15;99493.09;123445;1102;64921;-77
2021/03/09 03:08:16;;;;;;;33.90;10.53;;;;;;;-3.35;60.24;99488.77;123432;1102;65000;-78
2021/03/09 03:10:46;;;;;;;28.03;9.27;;;;;;;-3.34;60.08;99491.34;123445;1105;64941;-81
2021/03/09 03:13:15;;;;;;;30.23;10.57;;;;;;;-3.35;60.05;99483.53;123863;1102;64950;-79
2021/03/09 03:15:42;;;;;;;31.45;10.25;;;;;;;-3.38;59.88;99480.94;123433;1102;64953;-78
2021/03/09 03:18:16;;;;;;;23.13;9.70;;;;;;;-3.41;60.25;99483.59;123830;1102;64859;-79
2021/03/09 03:20:44;;;;;;;26.17;10.27;;;;;;;-3.44;59.56;99486.22;123510;1102;64911;-81
2021/03/09 03:23:12;;;;;;;21.95;9.10;;;;;;;-3.48;60.33;99485.39;123819;1102;64902;-82
2021/03/09 03:25:39;;;;;;;22.60;9.17;;;;;;;-3.49;60.23;99490.64;123909;1102;65275;-81
2021/03/09 03:28:08;;;;;;;25.63;9.03;;;;;;;-3.44;60.61;99480.99;123482;1102;64927;-81
2021/03/09 03:30:35;;;;;;;22.90;8.60;;;;;;;-3.33;60.65;99484.38;123838;1102;65008;-79
2021/03/09 03:33:03;;;;;;;23.47;9.70;;;;;;;-3.27;60.12;99479.09;123483;1102;64927;-79
2021/03/09 03:35:30;;;;;;;21.93;9.13;;;;;;;-3.27;60.25;99481.71;123841;1100;64928;-81
2021/03/09 03:37:57;;;;;;;24.10;8.57;;;;;;;-3.29;60.08;99481.73;123504;1103;65004;-78
2021/03/09 03:40:24;;;;;;;24.37;10.17;;;;;;;-3.32;59.94;99488.72;123497;1102;64908;-77
2021/03/09 03:42:50;;;;;;;25.80;8.63;;;;;;;-3.32;60.21;99488.72;123864;1102;64901;-79
2021/03/09 03:45:19;;;;;;;18.20;8.55;;;;;;;-3.36;60.34;99485.28;123473;1105;64898;-79
2021/03/09 03:47:47;;;;;;;21.13;9.63;;;;;;;-3.40;59.92;99488.80;123831;1102;65004;-78
2021/03/09 03:50:17;;;;;;;21.63;8.63;;;;;;;-3.46;60.13;99483.63;123863;1102;64982;-77
2021/03/09 03:52:58;;;;;;;22.30;8.43;;;;;;;-3.48;60.03;99489.75;124131;1102;64915;-79
2021/03/09 03:55:52;;;;;;;24.90;8.50;;;;;;;-3.54;60.10;99482.84;123882;1102;64838;-78
2021/03/09 03:58:38;;;;;;;22.53;9.47;;;;;;;-3.56;60.18;99488.08;123861;1102;64876;-79
2021/03/09 04:01:06;;;;;;;25.17;9.57;;;;;;;-3.58;59.58;99484.59;123717;1102;64866;-78
2021/03/09 04:03:35;;;;;;;25.90;9.20;;;;;;;-3.61;60.54;99483.77;123499;1105;65029;-79
2021/03/09 04:06:04;;;;;;;23.25;9.30;;;;;;;-3.64;60.42;99489.86;123800;1102;64898;-79
2021/03/09 04:08:37;;;;;;;26.20;9.60;;;;;;;-3.68;60.36;99485.56;123872;1102;64902;-82
2021/03/09 04:11:07;;;;;;;31.00;12.13;;;;;;;-3.70;60.93;99495.12;123851;1102;64898;-80
2021/03/09 04:13:37;;;;;;;45.65;14.45;;;;;;;-3.74;60.71;99484.75;123811;1102;64933;-81
2021/03/09 04:16:05;;;;;;;25.60;11.13;;;;;;;-3.79;60.45;99486.52;123928;1102;64902;-77
2021/03/09 04:18:33;;;;;;;27.85;10.00;;;;;;;-3.87;60.68;99486.58;123434;1102;65240;-79
2021/03/09 04:21:01;;;;;;;33.77;12.03;;;;;;;-3.93;60.50;99481.41;123751;1102;64939;-80
2021/03/09 04:23:28;;;;;;;46.93;16.23;;;;;;;-3.94;60.56;99482.28;123542;1102;64960;-79
2021/03/09 04:25:57;;;;;;;41.63;14.73;;;;;;;-3.93;60.30;99484.88;123802;1102;64938;-78
2021/03/09 04:28:24;;;;;;;31.13;11.27;;;;;;;-3.87;60.15;99491.80;123867;1102;64930;-79
2021/03/09 04:30:51;;;;;;;25.70;11.40;;;;;;;-3.86;60.42;99477.88;123812;1102;65138;-82
2021/03/09 04:33:18;;;;;;;24.10;11.23;;;;;;;-3.84;60.45;99476.97;123845;1102;64915;-79
2021/03/09 04:35:45;;;;;;;31.40;12.77;;;;;;;-3.82;60.47;99474.34;123844;1102;64924;-80
2021/03/09 04:38:13;;;;;;;32.20;12.97;;;;;;;-3.80;60.53;99475.22;123854;1102;64949;-79
2021/03/09 04:40:40;;;;;;;25.67;12.77;;;;;;;-3.76;60.47;99482.13;123841;1102;64969;-80
2021/03/09 04:43:06;;;;;;;39.80;17.35;;;;;;;-3.75;60.27;99478.66;123848;1102;64931;-79
2021/03/09 04:45:33;;;;;;;51.17;21.30;;;;;;;-3.74;60.33;99476.92;123838;1102;66464;-82
2021/03/09 04:48:01;;;;;;;59.13;22.60;;;;;;;-3.74;60.49;99477.78;123873;1102;64917;-79
2021/03/09 04:50:29;;;;;;;52.80;19.50;;;;;;;-3.74;59.92;99483.00;123803;1102;64956;-79
2021/03/09 04:52:56;;;;;;;47.33;16.63;;;;;;;-3.76;60.14;99482.13;123865;1102;64901;-78
2021/03/09 04:55:24;;;;;;;39.07;14.33;;;;;;;-3.79;60.64;99479.55;123836;1102;64914;-78
2021/03/09 04:57:51;;;;;;;33.50;11.73;;;;;;;-3.79;60.20;99481.30;123873;1102;64792;-78
2021/03/09 05:00:21;;;;;;;29.00;11.40;;;;;;;-3.76;60.45;99481.26;124118;1102;64841;-78
2021/03/09 05:02:50;;;;;;;36.03;12.00;;;;;;;-3.69;60.36;99478.62;123524;1102;64892;-79
2021/03/09 05:05:19;;;;;;;27.83;9.77;;;;;;;-3.64;60.56;99473.34;123592;1102;65029;-79
2021/03/09 05:07:46;;;;;;;24.37;9.70;;;;;;;-3.60;60.32;99480.27;123893;1102;64979;-79
2021/03/09 05:10:14;;;;;;;27.90;11.33;;;;;;;-3.59;60.51;99475.03;124800;1102;64997;-76
2021/03/09 05:12:42;;;;;;;29.55;10.85;;;;;;;-3.56;60.46;99481.99;123538;1103;64873;-78
2021/03/09 05:15:09;;;;;;;27.17;9.70;;;;;;;-3.52;60.53;99482.81;123568;1102;65001;-79
2021/03/09 05:17:36;;;;;;;29.00;10.27;;;;;;;-3.53;60.46;99474.12;123824;1102;64947;-78
2021/03/09 05:20:07;;;;;;;25.40;11.10;;;;;;;-3.56;59.90;99482.86;123850;1102;64931;-79
2021/03/09 05:22:34;;;;;;;42.20;15.10;;;;;;;-3.58;60.26;99481.12;123906;1102;64908;-78
2021/03/09 05:25:01;;;;;;;37.07;12.43;;;;;;;-3.58;60.73;99481.12;123842;1102;65024;-79
2021/03/09 05:27:27;;;;;;;29.63;10.97;;;;;;;-3.56;60.14;99488.08;123842;1102;65074;-79
2021/03/09 05:29:54;;;;;;;33.07;10.63;;;;;;;-3.51;60.29;99484.54;124148;1102;64894;-79
2021/03/09 05:32:21;;;;;;;28.40;11.03;;;;;;;-3.50;60.34;99487.12;123822;1102;65042;-78
2021/03/09 05:34:47;;;;;;;27.70;11.73;;;;;;;-3.50;60.21;99479.30;123830;1102;64965;-79
2021/03/09 05:37:14;;;;;;;32.03;11.30;;;;;;;-3.44;60.54;99480.99;123854;1102;64888;-81
2021/03/09 05:39:41;;;;;;;36.35;10.98;;;;;;;-3.40;60.31;99477.48;123828;1102;64994;-78
2021/03/09 05:42:08;;;;;;;22.87;9.33;;;;;;;-3.36;60.62;99481.81;123503;1102;64927;-79
2021/03/09 05:44:37;;;;;;;26.53;9.70;;;;;;;-3.31;60.29;99480.00;123791;1102;64889;-78
2021/03/09 05:47:05;;;;;;;24.13;10.10;;;;;;;-3.23;60.48;99477.34;123860;1102;64893;-82
2021/03/09 05:49:32;;;;;;;22.73;9.13;;;;;;;-3.15;60.60;99476.37;123880;1102;64897;-78
2021/03/09 05:51:59;;;;;;;31.67;10.33;;;;;;;-3.04;60.54;99476.27;123467;1105;64982;-78
2021/03/09 05:54:26;;;;;;;22.10;9.10;;;;;;;-2.93;59.98;99473.52;123809;1102;65014;-77
2021/03/09 05:56:53;;;;;;;30.67;9.87;;;;;;;-2.86;60.16;99476.07;123826;1102;64982;-81
2021/03/09 05:59:19;;;;;;;28.27;8.43;;;;;;;-2.80;60.27;99470.77;123508;1101;65030;-78
2021/03/09 06:01:46;;;;;;;27.40;10.63;;;;;;;-2.72;60.51;99471.54;123812;1102;64939;-78
2021/03/09 06:04:12;;;;;;;25.70;11.00;;;;;;;-2.60;60.31;99473.14;123806;1102;64917;-78
2021/03/09 06:06:39;;;;;;;22.87;10.03;;;;;;;-2.49;60.21;99476.47;123492;1102;64892;-80
2021/03/09 06:09:39;;;;;;;38.67;10.20;;;;;;;-2.40;60.04;99475.50;123421;1102;64915;-78
2021/03/09 06:12:17;;;;;;;21.33;9.03;;;;;;;-2.29;60.58;99477.95;123866;1102;64889;-78
2021/03/09 06:14:45;;;;;;;22.63;9.80;;;;;;;-2.25;59.57;99469.19;123748;1102;64896;-79
2021/03/09 06:17:13;;;;;;;24.10;9.13;;;;;;;-2.19;60.15;99471.72;123766;1102;65017;-78
2021/03/09 06:19:45;;;;;;;22.50;9.37;;;;;;;-2.11;60.43;99472.47;123531;1102;64943;-81
2021/03/09 06:22:12;;;;;;;30.17;9.27;;;;;;;-2.01;59.62;99471.46;123865;1102;64895;-78
2021/03/09 06:25:03;;;;;;;24.93;10.33;;;;;;;-1.88;59.45;99471.28;124055;1102;64915;-78
2021/03/09 06:27:31;;;;;;;29.13;11.70;;;;;;;-1.78;59.88;99483.31;124296;1102;64898;-77
2021/03/09 06:30:02;;;;;;;29.40;10.80;;;;;;;-1.71;59.79;99479.75;123973;1102;65068;-78
2021/03/09 06:32:39;;;;;;;23.93;11.50;;;;;;;-1.64;59.84;99487.48;123487;1102;65040;-78
2021/03/09 06:35:07;;;;;;;29.30;11.97;;;;;;;-1.53;59.50;99489.90;123776;1102;64946;-75
2021/03/09 06:37:33;;;;;;;40.03;13.80;;;;;;;-1.41;60.05;99487.08;124839;1102;64841;-80
2021/03/09 06:40:05;;;;;;;44.80;16.17;;;;;;;-1.28;59.70;99492.11;123909;1102;64991;-77
2021/03/09 06:42:38;;;;;;;40.30;14.07;;;;;;;-1.13;59.48;99490.10;123948;1102;64959;-81
2021/03/09 06:45:11;;;;;;;32.95;11.95;;;;;;;-1.05;59.29;99489.95;123891;1102;64891;-77
2021/03/09 06:47:49;;;;;;;28.57;10.23;;;;;;;-0.99;59.90;99496.84;123843;1102;64909;-79
2021/03/09 06:50:19;;;;;;;26.47;10.70;;;;;;;-0.88;59.11;99493.14;123903;1102;65055;-78
2021/03/09 06:53:04;;;;;;;39.97;12.43;;;;;;;-0.82;59.28;99490.41;123828;1102;64908;-79
2021/03/09 06:55:32;;;;;;;32.88;12.68;;;;;;;-0.72;58.89;99492.83;123803;1102;65349;-77
2021/03/09 06:58:10;;;;;;;44.80;15.20;;;;;;;-0.62;60.05;99490.01;123759;1102;65311;-79
2021/03/09 07:00:40;;;;;;;38.00;13.00;;;;;;;-0.49;59.15;99489.77;123586;1102;64921;-77
2021/03/09 07:03:32;;;;;;;28.43;11.27;;;;;;;-0.37;60.09;99485.13;123866;1101;64949;-81
2021/03/09 07:05:59;;;;;;;27.63;10.87;;;;;;;-0.23;59.31;99489.22;123864;1102;66369;-77
2021/03/09 07:08:26;;;;;;;33.20;11.10;;;;;;;-0.16;58.78;99494.30;123694;1102;65030;-77
2021/03/09 07:10:54;;;;;;;28.27;9.60;;;;;;;-0.06;59.42;99494.97;123571;1102;64908;-77
2021/03/09 07:13:26;;;;;;;26.57;11.27;;;;;;;0.05;59.45;99486.83;123862;1102;64941;-79
2021/03/09 07:15:55;;;;;;;41.40;11.37;;;;;;;0.19;59.64;99485.64;123867;1102;64921;-77
2021/03/09 07:18:24;;;;;;;38.20;11.97;;;;;;;0.28;59.03;99489.80;123858;1102;64984;-82
2021/03/09 07:20:53;;;;;;;35.57;11.60;;;;;;;0.47;59.08;99482.34;123759;1102;65027;-79
2021/03/09 07:23:25;;;;;;;33.00;10.20;;;;;;;0.60;59.13;99483.77;123554;1103;65378;-77
2021/03/09 07:25:58;;;;;;;20.87;9.83;;;;;;;0.73;58.74;99484.32;123631;1102;64911;-82
2021/03/09 07:28:37;;;;;;;21.10;8.37;;;;;;;0.81;57.86;99484.98;123917;1102;64899;-78
2021/03/09 07:31:06;;;;;;;31.30;10.20;;;;;;;0.86;58.80;99490.99;123810;1102;64973;-78
2021/03/09 07:33:34;;;;;;;16.53;7.83;;;;;;;0.97;59.02;99491.58;123751;1102;65299;-78
2021/03/09 07:36:04;;;;;;;19.45;7.50;;;;;;;1.06;59.12;99490.46;123571;1102;64976;-79
2021/03/09 07:38:30;;;;;;;17.23;8.30;;;;;;;1.12;59.03;99485.04;123548;1102;64930;-80
2021/03/09 07:40:58;;;;;;;18.13;9.30;;;;;;;1.20;58.79;99488.31;123760;1102;64998;-79
2021/03/09 07:43:26;;;;;;;23.43;9.73;;;;;;;1.30;59.21;99484.55;123837;1102;64924;-78
2021/03/09 07:45:53;;;;;;;33.87;10.57;;;;;;;1.41;59.10;99486.89;123847;1102;64978;-79
2021/03/09 07:48:23;;;;;;;33.33;12.57;;;;;;;1.54;58.75;99487.41;123866;1102;64943;-77
2021/03/09 07:50:50;;;;;;;33.50;11.60;;;;;;;1.66;59.06;99481.78;123884;1102;64984;-79
2021/03/09 07:53:22;;;;;;;25.87;10.70;;;;;;;1.76;58.33;99480.59;123905;1102;64859;-79
2021/03/09 07:56:09;;;;;;;24.00;10.50;;;;;;;1.79;58.92;99482.28;123918;1102;64923;-80
2021/03/09 07:58:36;;;;;;;29.70;10.40;;;;;;;1.81;58.95;99483.95;123936;1102;65068;-76
2021/03/09 08:01:06;;;;;;;28.63;10.33;;;;;;;1.90;58.87;99477.53;123746;1102;64972;-81
2021/03/09 08:03:37;;;;;;;37.97;12.10;;;;;;;1.93;58.11;99472.19;123754;1102;64955;-79
2021/03/09 08:06:09;;;;;;;21.00;9.83;;;;;;;1.95;58.41;99477.41;123858;1102;65027;-79
2021/03/09 08:08:46;;;;;;;28.93;10.73;;;;;;;2.02;58.69;99473.67;123525;1102;64898;-80
2021/03/09 08:11:25;;;;;;;20.75;8.60;;;;;;;2.09;58.22;99476.06;123830;1102;65052;-80
2021/03/09 08:14:04;;;;;;;19.30;8.90;;;;;;;2.10;58.06;99472.55;123818;1102;64972;-83
2021/03/09 08:16:36;;;;;;;25.73;10.07;;;;;;;2.20;57.91;99472.24;123853;1102;64936;-79
2021/03/09 08:19:10;;;;;;;22.40;10.10;;;;;;;2.13;57.55;99471.58;123519;1102;64870;-79
2021/03/09 08:21:59;;;;;;;25.37;10.20;;;;;;;2.23;58.02;99472.12;123870;1102;64981;-79
2021/03/09 08:24:41;;;;;;;21.70;8.57;;;;;;;2.36;57.85;99471.72;123850;1102;65082;-79
2021/03/09 08:27:27;;;;;;;23.10;9.43;;;;;;;2.41;57.34;99477.68;123871;1102;64908;-81
2021/03/09 08:29:55;;;;;;;22.15;9.90;;;;;;;2.48;58.00;99466.94;123857;1102;64993;-80
2021/03/09 08:32:26;;;;;;;22.93;9.57;;;;;;;2.61;58.17;99468.29;123805;1102;64928;-78
2021/03/09 08:35:13;;;;;;;22.03;9.07;;;;;;;2.73;57.79;99465.21;123806;1102;65007;-82
2021/03/09 08:37:41;;;;;;;23.35;8.10;;;;;;;2.85;57.85;99461.30;123819;1102;65109;-80
2021/03/09 08:40:22;;;;;;;30.70;10.50;;;;;;;3.04;58.66;99462.39;123877;1102;64921;-80
2021/03/09 08:43:01;;;;;;;21.60;8.97;;;;;;;3.24;57.45;99459.93;123974;1102;64841;-76
2021/03/09 08:45:37;;;;;;;29.17;10.63;;;;;;;3.43;58.53;99465.38;123855;1102;64988;-80
2021/03/09 08:48:04;;;;;;;19.30;9.90;;;;;;;3.69;58.37;99466.19;123486;1102;64853;-78
2021/03/09 08:50:46;;;;;;;19.30;7.47;;;;;;;3.89;57.58;99465.46;123802;1102;64927;-81
2021/03/09 08:53:32;;;;;;;16.90;7.57;;;;;;;3.94;57.29;99461.69;123786;1102;64981;-82
2021/03/09 08:56:01;;;;;;;11.27;5.53;;;;;;;3.89;57.43;99455.75;123807;1102;65341;-80
2021/03/09 08:58:29;;;;;;;9.97;5.10;;;;;;;3.89;56.52;99455.75;123848;1102;64940;-81
2021/03/09 09:00:56;;;;;;;11.33;5.57;;;;;;;3.87;57.37;99454.93;123825;1102;64995;-79
2021/03/09 09:03:40;;;;;;;14.17;5.97;;;;;;;4.11;57.33;99446.97;123803;1102;65070;-78
2021/03/09 09:06:07;;;;;;;12.40;6.23;;;;;;;4.15;56.29;99448.59;123564;1102;64908;-78
2021/03/09 09:08:34;;;;;;;19.25;7.60;;;;;;;4.22;57.03;99450.06;123833;1102;64880;-81
2021/03/09 09:11:01;;;;;;;17.50;7.00;;;;;;;4.38;57.20;99437.92;123842;1102;64895;-81
2021/03/09 09:13:33;;;;;;;15.23;6.77;;;;;;;4.68;57.19;99440.23;123812;1102;64971;-81
2021/03/09 09:16:02;;;;;;;21.17;5.77;;;;;;;4.83;56.57;99436.93;123454;1105;64921;-78
2021/03/09 09:18:28;;;;;;;17.23;6.40;;;;;;;4.89;56.76;99440.17;123857;1102;65001;-78
2021/03/09 09:20:55;;;;;;;12.70;5.23;;;;;;;5.10;56.50;99434.91;123862;1102;64905;-82
2021/03/09 09:23:30;;;;;;;11.40;4.97;;;;;;;5.17;56.02;99436.36;123773;1102;64960;-82
2021/03/09 09:26:00;;;;;;;16.02;7.10;;;;;;;5.27;56.34;99434.14;123516;1102;65007;-77
2021/03/09 09:28:27;;;;;;;15.10;7.70;;;;;;;5.54;57.17;99422.33;123978;1102;64972;-79
2021/03/09 09:31:09;;;;;;;12.67;6.57;;;;;;;5.60;55.40;99422.05;123838;1102;65361;-77
2021/03/09 09:33:36;;;;;;;11.97;5.87;;;;;;;5.46;54.54;99432.39;123586;1102;64985;-79
2021/03/09 09:36:03;;;;;;;11.23;6.67;;;;;;;5.24;55.66;99427.20;123924;1102;65314;-79
2021/03/09 09:38:30;;;;;;;13.70;6.83;;;;;;;5.43;56.74;99425.45;123477;1102;64914;-77
2021/03/09 09:40:59;;;;;;;11.53;5.77;;;;;;;5.52;55.57;99425.95;123784;1102;64940;-80
2021/03/09 09:43:32;;;;;;;11.93;5.00;;;;;;;5.56;55.99;99423.11;123793;1102;64956;-78
2021/03/09 09:46:02;;;;;;;9.50;4.97;;;;;;;5.76;56.38;99416.02;123623;1102;64978;-78
2021/03/09 09:48:31;;;;;;;18.57;6.43;;;;;;;5.89;55.02;99419.81;123664;1102;64953;-81
2021/03/09 09:51:00;;;;;;;12.47;6.77;;;;;;;5.95;56.61;99424.86;123856;1102;64981;-80
2021/03/09 09:53:28;;;;;;;11.07;5.40;;;;;;;6.17;55.62;99420.27;123559;1103;64946;-79
2021/03/09 09:55:55;;;;;;;9.63;5.20;;;;;;;6.39;56.03;99424.52;123888;1102;65295;-78
2021/03/09 09:58:37;;;;;;;6.30;2.70;;;;;;;6.49;55.19;99425.80;123440;1102;65013;-81
2021/03/09 10:01:04;;;;;;;12.83;5.47;;;;;;;6.68;55.69;99418.63;123552;1102;64969;-79
2021/03/09 10:03:31;;;;;;;15.23;5.80;;;;;;;6.88;55.61;99420.27;123961;1102;64904;-82
2021/03/09 10:06:18;;;;;;;10.93;5.03;;;;;;;6.97;55.16;99411.81;123558;1102;64968;-79
2021/03/09 10:08:45;;;;;;;9.77;4.40;;;;;;;7.10;55.75;99414.70;123788;1102;64898;-78
2021/03/09 10:11:12;;;;;;;14.43;5.73;;;;;;;7.27;54.59;99419.99;123924;1102;64937;-79
2021/03/09 10:13:39;;;;;;;10.67;6.07;;;;;;;7.27;54.93;99412.02;123624;1102;64904;-79
2021/03/09 10:16:06;;;;;;;139.60;73.33;;;;;;;7.13;52.21;99413.70;123501;1102;65014;-80
2021/03/09 10:18:35;;;;;;;36.00;21.10;;;;;;;6.59;52.15;99408.46;123590;1102;64994;-79
2021/03/09 10:21:05;;;;;;;17.10;8.37;;;;;;;6.27;53.45;99414.50;124051;1102;65033;-80
2021/03/09 10:23:34;;;;;;;48.27;22.40;;;;;;;6.37;53.50;99416.64;123850;1102;64893;-83
2021/03/09 10:26:03;;;;;;;11.60;5.60;;;;;;;6.27;52.72;99414.50;123896;1102;64896;-79
2021/03/09 10:28:31;;;;;;;7.73;4.23;;;;;;;6.33;54.66;99403.59;123822;1102;64943;-80
2021/03/09 10:30:58;;;;;;;10.87;5.07;;;;;;;6.65;54.35;99410.80;123554;1102;64931;-79
2021/03/09 10:33:25;;;;;;;9.53;5.00;;;;;;;6.62;53.56;99400.36;123936;1102;64994;-82
2021/03/09 10:36:10;;;;;;;8.75;4.55;;;;;;;6.41;53.46;99399.62;123884;1102;65010;-80
2021/03/09 10:38:37;;;;;;;;;;;;;;;6.16;51.71;99404.41;123901;1102;65369;-79
2021/03/09 10:41:04;;;;;;;9.03;4.87;;;;;;;5.85;53.69;99402.33;124021;1102;64953;-81
2021/03/09 10:43:44;;;;;;;15.57;5.57;;;;;;;5.97;54.00;99404.44;123673;1102;64997;-78
2021/03/09 10:46:12;;;;;;;12.43;4.37;;;;;;;6.29;54.66;99408.18;124186;1102;64915;-80
2021/03/09 10:48:40;;;;;;;10.07;5.00;;;;;;;6.59;54.06;99400.50;123936;1102;64880;-80
2021/03/09 10:51:18;;;;;;;9.73;4.23;;;;;;;6.80;53.24;99397.69;123474;1102;64975;-78
2021/03/09 10:53:46;;;;;;;9.47;4.17;;;;;;;6.54;52.59;99407.83;124235;1102;64827;-77
2021/03/09 10:56:13;;;;;;;11.80;5.80;;;;;;;6.37;53.24;99399.87;123823;1102;65272;-81
2021/03/09 10:58:40;;;;;;;8.83;3.97;;;;;;;6.16;52.30;99386.70;123852;1102;64927;-81
2021/03/09 11:01:07;;;;;;;13.17;6.33;;;;;;;6.13;52.44;99391.31;124025;1102;64984;-79
2021/03/09 11:03:33;;;;;;;9.63;4.67;;;;;;;6.04;53.12;99392.59;123916;1102;64952;-81
2021/03/09 11:06:00;;;;;;;13.37;5.30;;;;;;;6.23;52.47;99385.50;123935;1102;64914;-79
2021/03/09 11:08:26;;;;;;;12.07;5.00;;;;;;;6.18;52.00;99387.51;123881;1102;65000;-83
2021/03/09 11:10:55;;;;;;;15.55;6.30;;;;;;;6.34;52.58;99389.39;123492;1102;65353;-82
2021/03/09 11:13:21;;;;;;;8.25;4.60;;;;;;;6.41;52.52;99382.84;123971;1102;65003;-78
2021/03/09 11:15:48;;;;;;;12.07;6.53;;;;;;;6.33;50.58;99385.03;123891;1101;64895;-79
2021/03/09 11:18:15;;;;;;;11.13;4.57;;;;;;;6.14;51.35;99377.97;123678;1102;64876;-79
2021/03/09 11:20:42;;;;;;;11.63;4.90;;;;;;;6.07;52.42;99381.86;123780;1102;65067;-84
2021/03/09 11:23:09;;;;;;;10.40;4.10;;;;;;;6.43;52.68;99378.34;124056;1102;64978;-79
2021/03/09 11:25:38;;;;;;;8.57;4.40;;;;;;;6.66;53.03;99374.52;124460;1102;64832;-79
2021/03/09 11:28:05;;;;;;;11.30;4.80;;;;;;;6.86;52.97;99371.68;123851;1102;64953;-79
2021/03/09 11:30:31;;;;;;;8.73;4.50;;;;;;;7.11;53.34;99367.75;123717;1102;64984;-81